Time;durP1;ratioP1;P1;durP2;ratioP2;P2;SDS_P1;SDS_P2;PMS_P1;PMS_P2;Temp;Humidity;BMP_temperature;BMP_pressure;BME280_temperature;BME280_humidity;BME280_pressure;Samples;Min_cycle;Max_cycle;Signal;HPM_P1;HPM_P2
2022/07/05 00:02:05;;;;;;;4.65;3.58;;;13.00;99.90;;;;;;5017634;28;20049;-43
2022/07/05 00:04:31;;;;;;;6.68;3.90;;;13.00;99.90;;;;;;5002928;28;20088;-43
2022/07/05 00:09:41;;;;;;;5.85;4.20;;;12.90;99.90;;;;;;5024543;28;20413;-45
2022/07/05 00:12:07;;;;;;;7.13;4.45;;;12.80;99.90;;;;;;5006398;28;20387;-45
2022/07/05 00:14:34;;;;;;;5.32;4.50;;;12.80;99.90;;;;;;5013238;28;20126;-44
2022/07/05 00:16:59;;;;;;;4.75;4.25;;;12.70;99.90;;;;;;5017109;28;20073;-42
2022/07/05 00:19:25;;;;;;;6.10;4.20;;;12.70;99.90;;;;;;5016777;28;20694;-43
2022/07/05 00:22:00;;;;;;;6.40;3.97;;;12.70;99.90;;;;;;5026722;28;20053;-45
2022/07/05 00:24:26;;;;;;;6.00;4.53;;;12.70;99.90;;;;;;5021990;28;20045;-46
2022/07/05 00:26:52;;;;;;;7.00;4.78;;;12.60;99.90;;;;;;5024862;28;20503;-48
2022/07/05 00:29:18;;;;;;;5.82;4.00;;;12.60;99.90;;;;;;5024032;28;20045;-47
2022/07/05 00:31:44;;;;;;;5.05;4.20;;;12.60;99.90;;;;;;5023964;28;20125;-43
2022/07/05 00:34:10;;;;;;;7.53;4.50;;;12.60;99.90;;;;;;5021665;28;20038;-45
2022/07/05 00:36:36;;;;;;;5.40;4.57;;;12.60;99.90;;;;;;5016484;28;20038;-43
2022/07/05 00:39:02;;;;;;;6.05;4.35;;;12.60;99.90;;;;;;5019293;28;20060;-44
2022/07/05 00:41:28;;;;;;;5.30;4.70;;;12.50;99.90;;;;;;5023499;28;20041;-43
2022/07/05 00:43:56;;;;;;;6.80;4.93;;;12.50;99.90;;;;;;5016801;28;20124;-43
2022/07/05 00:46:22;;;;;;;6.97;5.10;;;12.50;99.90;;;;;;5004494;28;20584;-42
2022/07/05 00:48:48;;;;;;;6.03;5.35;;;12.40;99.90;;;;;;5009301;28;20050;-45
2022/07/05 00:51:14;;;;;;;9.38;5.80;;;12.40;99.90;;;;;;5018459;28;20589;-44
2022/07/05 00:53:40;;;;;;;7.35;6.43;;;12.40;99.90;;;;;;5022619;28;20057;-44
2022/07/05 00:56:07;;;;;;;6.35;5.75;;;12.40;99.90;;;;;;5022428;28;20054;-44
2022/07/05 00:58:33;;;;;;;7.40;6.78;;;12.40;99.90;;;;;;5024258;28;20124;-43
2022/07/05 01:01:01;;;;;;;7.93;7.22;;;12.30;99.90;;;;;;5022614;28;20407;-45
2022/07/05 01:03:27;;;;;;;7.82;7.03;;;12.30;99.90;;;;;;5028546;28;20058;-44
2022/07/05 01:05:54;;;;;;;8.27;7.00;;;12.30;99.90;;;;;;5026171;28;20281;-42
2022/07/05 01:08:22;;;;;;;8.75;8.05;;;12.30;99.90;;;;;;5012823;28;20045;-42
2022/07/05 01:10:48;;;;;;;7.70;7.00;;;12.30;99.90;;;;;;4994454;28;20133;-43
2022/07/05 01:13:14;;;;;;;8.45;7.15;;;12.30;99.90;;;;;;5001504;28;20547;-45
2022/07/05 01:15:41;;;;;;;7.47;6.88;;;12.30;99.90;;;;;;5013358;28;20662;-45
2022/07/05 01:18:08;;;;;;;9.60;6.60;;;12.20;99.90;;;;;;5022444;28;20046;-43
2022/07/05 01:20:34;;;;;;;7.25;6.55;;;12.30;99.90;;;;;;4999805;28;20401;-43
2022/07/05 01:23:02;;;;;;;8.40;7.70;;;12.20;99.90;;;;;;5023780;28;20136;-43
2022/07/05 01:25:29;;;;;;;8.65;7.72;;;12.30;99.90;;;;;;5023605;28;20053;-45
2022/07/05 01:27:58;;;;;;;8.60;7.78;;;12.40;99.90;;;;;;5021627;28;20073;-44
2022/07/05 01:30:24;;;;;;;9.73;7.50;;;12.30;99.90;;;;;;5004397;28;20603;-45
2022/07/05 01:32:50;;;;;;;8.65;7.85;;;12.40;99.90;;;;;;5023809;28;20175;-47
2022/07/05 01:35:20;;;;;;;8.55;7.75;;;12.40;99.90;;;;;;5005321;28;20041;-43
2022/07/05 01:37:47;;;;;;;8.90;8.00;;;12.40;99.90;;;;;;5024505;28;20121;-47
2022/07/05 01:40:13;;;;;;;8.52;7.63;;;12.40;99.90;;;;;;5023328;28;20053;-46
2022/07/05 01:42:39;;;;;;;8.88;8.07;;;12.40;99.90;;;;;;5020880;28;20273;-44
2022/07/05 01:45:06;;;;;;;9.05;8.25;;;12.30;99.90;;;;;;5010098;28;20826;-46
2022/07/05 01:47:44;;;;;;;9.30;8.07;;;12.30;99.90;;;;;;5011518;28;20045;-45
2022/07/05 01:50:14;;;;;;;8.65;7.93;;;12.30;99.90;;;;;;5020283;28;20045;-43
2022/07/05 01:52:43;;;;;;;9.85;8.85;;;12.20;99.90;;;;;;5013786;28;20091;-43
2022/07/05 01:55:09;;;;;;;8.95;8.18;;;12.20;99.90;;;;;;5022693;28;20489;-43
2022/07/05 01:57:35;;;;;;;9.27;8.30;;;12.20;99.90;;;;;;5016160;28;20059;-42
2022/07/05 02:00:01;;;;;;;10.48;8.82;;;12.10;99.90;;;;;;5002178;28;20045;-42
2022/07/05 02:02:27;;;;;;;9.63;8.68;;;12.10;99.90;;;;;;5013679;28;20045;-42
2022/07/05 02:04:52;;;;;;;8.80;7.95;;;12.10;99.90;;;;;;4996151;28;20060;-43
2022/07/05 02:07:18;;;;;;;9.27;7.78;;;12.10;99.90;;;;;;5021935;28;20045;-43
2022/07/05 02:09:44;;;;;;;8.63;7.72;;;12.10;99.90;;;;;;5001702;28;20049;-42
2022/07/05 02:12:09;;;;;;;7.65;6.95;;;12.10;99.90;;;;;;5002369;28;20050;-43
2022/07/05 02:14:35;;;;;;;8.73;7.35;;;12.10;99.90;;;;;;5009049;28;20065;-43
2022/07/05 02:17:01;;;;;;;9.32;8.43;;;12.10;99.90;;;;;;5022817;28;20136;-43
2022/07/05 02:19:28;;;;;;;10.32;7.85;;;12.10;99.90;;;;;;5017473;28;20038;-45
2022/07/05 02:21:53;;;;;;;8.68;7.88;;;12.10;99.90;;;;;;5021195;28;20049;-44
2022/07/05 02:24:22;;;;;;;8.93;8.00;;;12.10;99.90;;;;;;5022348;28;20099;-45
2022/07/05 02:26:48;;;;;;;9.48;8.38;;;12.10;99.90;;;;;;4999435;28;20064;-43
2022/07/05 02:29:14;;;;;;;9.50;8.60;;;12.10;99.90;;;;;;5020839;28;20045;-42
2022/07/05 02:31:40;;;;;;;9.23;8.43;;;12.00;99.90;;;;;;4971274;28;20425;-44
2022/07/05 02:34:05;;;;;;;9.70;7.95;;;12.10;99.90;;;;;;5017124;28;20181;-42
2022/07/05 02:36:31;;;;;;;8.70;7.90;;;12.00;99.90;;;;;;5014315;28;20580;-43
2022/07/05 02:38:57;;;;;;;9.07;7.50;;;12.00;99.90;;;;;;5018031;28;20053;-43
2022/07/05 02:41:22;;;;;;;7.55;6.95;;;11.90;99.90;;;;;;5004833;28;20523;-43
2022/07/05 02:43:48;;;;;;;8.38;7.57;;;11.90;99.90;;;;;;5022889;28;20053;-42
2022/07/05 02:46:14;;;;;;;8.07;7.38;;;12.00;99.90;;;;;;5022999;28;20045;-42
2022/07/05 02:48:40;;;;;;;7.95;7.13;;;11.90;99.90;;;;;;5023164;28;20480;-43
2022/07/05 02:51:06;;;;;;;8.68;7.18;;;11.90;99.90;;;;;;5002235;28;20057;-45
2022/07/05 02:53:34;;;;;;;7.40;6.70;;;11.90;99.90;;;;;;5028779;28;20460;-43
2022/07/05 02:55:59;;;;;;;8.00;6.88;;;11.90;99.90;;;;;;4991120;28;20081;-45
2022/07/05 02:58:25;;;;;;;8.23;7.43;;;11.90;99.90;;;;;;5021506;28;20511;-43
2022/07/05 03:00:51;;;;;;;8.88;8.15;;;12.00;99.90;;;;;;5011149;28;20050;-42
2022/07/05 03:03:17;;;;;;;9.73;7.88;;;12.00;99.90;;;;;;5009470;28;20045;-43
2022/07/05 03:05:48;;;;;;;8.25;7.30;;;12.00;99.90;;;;;;5021869;28;20049;-43
2022/07/05 03:08:13;;;;;;;8.27;6.88;;;12.00;99.90;;;;;;5017494;28;20053;-43
2022/07/05 03:10:39;;;;;;;7.63;6.93;;;11.90;99.90;;;;;;5020506;28;20130;-44
2022/07/05 03:13:05;;;;;;;7.93;7.15;;;12.00;99.90;;;;;;5018083;28;20053;-42
2022/07/05 03:15:31;;;;;;;7.97;7.18;;;11.90;99.90;;;;;;5018919;28;20045;-43
2022/07/05 03:17:57;;;;;;;8.70;7.85;;;12.00;99.90;;;;;;5018466;28;20131;-43
2022/07/05 03:20:23;;;;;;;10.35;8.55;;;12.00;99.90;;;;;;5019052;28;20136;-43
2022/07/05 03:22:49;;;;;;;8.63;7.80;;;11.90;99.90;;;;;;5020399;28;20056;-42
2022/07/05 03:25:14;;;;;;;8.20;7.40;;;11.90;99.90;;;;;;5018496;28;20049;-43
2022/07/05 03:27:43;;;;;;;8.50;7.80;;;11.90;99.90;;;;;;5023532;28;20463;-44
2022/07/05 03:30:09;;;;;;;8.85;7.65;;;11.80;99.90;;;;;;4997687;28;20050;-43
2022/07/05 03:32:35;;;;;;;8.82;8.05;;;11.80;99.90;;;;;;5019066;28;20064;-43
2022/07/05 03:35:01;;;;;;;8.20;7.40;;;11.80;99.90;;;;;;5018571;28;20077;-42
2022/07/05 03:37:26;;;;;;;8.95;8.05;;;11.80;99.90;;;;;;5022643;28;20041;-45
2022/07/05 03:39:52;;;;;;;8.80;7.43;;;11.80;99.90;;;;;;4996314;28;20053;-43
2022/07/05 03:42:18;;;;;;;8.77;7.45;;;11.80;99.90;;;;;;5029392;28;20042;-43
2022/07/05 03:44:44;;;;;;;8.55;7.60;;;11.80;99.90;;;;;;5023302;28;20049;-43
2022/07/05 03:47:09;;;;;;;8.70;7.88;;;11.90;99.90;;;;;;5021113;28;20124;-44
2022/07/05 03:49:35;;;;;;;9.63;7.70;;;11.90;99.90;;;;;;4992463;28;20108;-43
2022/07/05 03:52:01;;;;;;;8.30;7.53;;;11.90;99.90;;;;;;5011795;28;20041;-42
2022/07/05 03:54:26;;;;;;;9.32;8.43;;;11.90;99.90;;;;;;5022453;28;20496;-43
2022/07/05 03:56:52;;;;;;;8.70;7.85;;;11.90;99.90;;;;;;5014854;28;20046;-47
2022/07/05 03:59:18;;;;;;;8.88;7.97;;;11.90;99.90;;;;;;5026235;28;20072;-44
2022/07/05 04:01:44;;;;;;;8.43;7.68;;;12.00;99.90;;;;;;5004303;28;20136;-44
2022/07/05 04:04:09;;;;;;;9.57;8.68;;;12.00;99.90;;;;;;5016644;28;20050;-45
2022/07/05 04:06:35;;;;;;;8.00;7.15;;;12.10;99.90;;;;;;5000789;28;20814;-46
2022/07/05 04:09:01;;;;;;;8.25;7.10;;;12.40;99.90;;;;;;5036115;28;20458;-45
2022/07/05 04:11:26;;;;;;;6.68;6.07;;;13.10;99.90;;;;;;4990615;28;20058;-45
2022/07/05 04:13:52;;;;;;;6.85;6.15;;;14.10;99.90;;;;;;5026391;28;20060;-44
2022/07/05 04:16:18;;;;;;;6.03;5.53;;;15.10;99.90;;;;;;5021035;28;20107;-44
2022/07/05 04:18:44;;;;;;;6.07;5.57;;;16.00;99.90;;;;;;5023742;28;20033;-45
2022/07/05 04:21:15;;;;;;;6.10;5.60;;;16.80;99.90;;;;;;5022737;28;20049;-46
2022/07/05 04:23:40;;;;;;;6.60;5.30;;;17.60;99.90;;;;;;5023138;28;20045;-45
2022/07/05 04:26:06;;;;;;;5.22;4.68;;;18.40;99.90;;;;;;5003478;28;20053;-43
2022/07/05 04:28:32;;;;;;;5.75;4.15;;;19.20;99.90;;;;;;5027473;28;20040;-45
2022/07/05 04:30:59;;;;;;;6.18;4.07;;;19.80;99.90;;;;;;5009006;28;20049;-45
2022/07/05 04:33:25;;;;;;;4.63;4.22;;;20.00;99.90;;;;;;5021779;28;20060;-45
2022/07/05 04:35:51;;;;;;;6.85;4.20;;;19.80;99.90;;;;;;5002050;28;20081;-43
2022/07/05 04:38:16;;;;;;;6.40;4.53;;;19.90;99.90;;;;;;4996424;28;20579;-45
2022/07/05 04:40:42;;;;;;;4.38;3.97;;;19.60;99.90;;;;;;5021521;28;20562;-44
2022/07/05 04:43:08;;;;;;;5.13;4.63;;;19.30;99.90;;;;;;5019410;28;20567;-44
2022/07/05 04:45:33;;;;;;;5.20;4.30;;;19.70;99.90;;;;;;5021201;28;20516;-45
2022/07/05 04:48:00;;;;;;;4.10;3.72;;;20.40;99.90;;;;;;5011882;28;20049;-45
2022/07/05 04:50:25;;;;;;;4.13;3.83;;;21.20;99.90;;;;;;5011921;28;20053;-45
2022/07/05 04:52:51;;;;;;;4.43;4.03;;;22.10;99.90;;;;;;5022092;28;20056;-44
2022/07/05 04:55:17;;;;;;;4.93;4.13;;;22.80;99.90;;;;;;5022175;28;20069;-43
2022/07/05 04:57:43;;;;;;;4.35;3.80;;;23.30;99.90;;;;;;4985656;28;20057;-44
2022/07/05 05:00:10;;;;;;;4.15;3.75;;;23.90;99.50;;;;;;5018632;28;20476;-44
2022/07/05 05:02:37;;;;;;;5.20;3.53;;;24.30;98.70;;;;;;5026370;28;20911;-44
2022/07/05 05:05:03;;;;;;;4.00;3.67;;;24.80;98.10;;;;;;5012481;28;20053;-43
2022/07/05 05:07:29;;;;;;;4.13;3.47;;;24.50;97.40;;;;;;5022519;28;20046;-44
2022/07/05 05:09:55;;;;;;;6.40;3.63;;;23.60;97.70;;;;;;5004237;28;20050;-44
2022/07/05 05:12:21;;;;;;;4.00;3.30;;;23.00;98.50;;;;;;4999963;28;21351;-43
2022/07/05 05:14:47;;;;;;;4.60;3.25;;;23.30;99.10;;;;;;5022701;28;20056;-43
2022/07/05 05:17:13;;;;;;;4.75;3.00;;;24.20;98.70;;;;;;5006558;28;20473;-46
2022/07/05 05:19:38;;;;;;;4.13;2.80;;;25.10;97.90;;;;;;5023414;28;20049;-48
2022/07/05 05:22:04;;;;;;;3.45;2.85;;;25.80;97.00;;;;;;5031628;28;20133;-52
2022/07/05 05:24:30;;;;;;;4.80;3.30;;;25.10;96.60;;;;;;5023359;28;20030;-45
2022/07/05 05:26:56;;;;;;;4.07;3.15;;;23.90;97.30;;;;;;5013197;28;20054;-45
2022/07/05 05:29:22;;;;;;;5.03;2.92;;;23.80;98.50;;;;;;5023627;28;20155;-44
2022/07/05 05:31:48;;;;;;;4.57;2.90;;;24.50;98.20;;;;;;5021321;28;20052;-46
2022/07/05 05:34:13;;;;;;;3.60;2.40;;;25.50;97.70;;;;;;5021794;28;20088;-44
2022/07/05 05:36:39;;;;;;;3.88;2.58;;;26.50;96.90;;;;;;5016690;28;20045;-48
2022/07/05 05:39:05;;;;;;;3.88;2.03;;;27.20;96.30;;;;;;5018784;28;20049;-45
2022/07/05 05:41:30;;;;;;;9.98;2.35;;;27.90;96.00;;;;;;5020537;28;20087;-44
2022/07/05 05:43:56;;;;;;;3.67;2.25;;;28.10;94.70;;;;;;5015652;28;20050;-44
2022/07/05 05:46:22;;;;;;;6.85;1.90;;;28.50;94.50;;;;;;5012961;28;20045;-45
2022/07/05 05:48:48;;;;;;;2.97;1.80;;;29.20;93.70;;;;;;5022570;28;20053;-45
2022/07/05 05:51:13;;;;;;;4.97;1.63;;;29.20;92.60;;;;;;5006548;28;20384;-46
2022/07/05 05:53:39;;;;;;;3.38;1.50;;;28.50;92.60;;;;;;5022830;28;20052;-45
2022/07/05 05:56:05;;;;;;;5.35;1.73;;;28.60;92.80;;;;;;5012890;28;20124;-44
2022/07/05 05:58:31;;;;;;;3.47;1.83;;;29.40;92.00;;;;;;5011290;28;20503;-45
2022/07/05 06:01:02;;;;;;;3.00;1.75;;;30.30;91.60;;;;;;5018274;28;20053;-44
2022/07/05 06:03:28;;;;;;;7.15;1.77;;;30.80;90.30;;;;;;5015828;28;20055;-45
2022/07/05 06:05:54;;;;;;;5.35;1.80;;;30.80;90.00;;;;;;5018581;28;20041;-47
2022/07/05 06:08:19;;;;;;;5.55;1.80;;;29.60;88.90;;;;;;5022101;28;20045;-45
2022/07/05 06:10:45;;;;;;;5.63;1.83;;;28.60;90.60;;;;;;5019411;28;20072;-47
2022/07/05 06:13:12;;;;;;;10.02;2.00;;;29.00;90.80;;;;;;5031969;28;20076;-45
2022/07/05 06:15:39;;;;;;;3.90;1.60;;;29.80;90.30;;;;;;5019992;28;20068;-45
2022/07/05 06:18:07;;;;;;;4.57;1.75;;;29.70;89.60;;;;;;5021052;28;20103;-44
2022/07/05 06:20:34;;;;;;;3.88;1.50;;;30.20;87.40;;;;;;5013877;28;20045;-45
2022/07/05 06:23:01;;;;;;;6.78;1.77;;;30.70;88.00;;;;;;5007525;28;20037;-45
2022/07/05 06:25:28;;;;;;;4.40;1.77;;;31.30;87.30;;;;;;5021008;28;20047;-45
2022/07/05 06:27:56;;;;;;;2.25;1.10;;;31.60;86.10;;;;;;5022328;28;20395;-45
2022/07/05 06:30:23;;;;;;;4.47;1.58;;;32.20;85.50;;;;;;5020415;28;20129;-46
2022/07/05 06:32:50;;;;;;;5.70;1.40;;;33.00;84.90;;;;;;5012971;28;20057;-45
2022/07/05 06:35:18;;;;;;;5.15;1.90;;;33.10;82.80;;;;;;5002972;28;20057;-46
2022/07/05 06:37:54;;;;;;;2.75;1.23;;;33.10;81.00;;;;;;5023570;28;20526;-46
2022/07/05 06:40:25;;;;;;;3.10;1.27;;;33.10;81.70;;;;;;5002721;28;20951;-47
2022/07/05 06:42:52;;;;;;;;;;;33.00;79.00;;;;;;5019968;28;20129;-47
2022/07/05 06:45:18;;;;;;;4.70;1.35;;;32.30;78.60;;;;;;5006198;28;19925;-46
2022/07/05 06:47:43;;;;;;;6.30;1.50;;;30.50;78.80;;;;;;5010798;28;20501;-46
2022/07/05 06:50:12;;;;;;;4.72;1.40;;;30.00;80.80;;;;;;5000629;28;20060;-44
2022/07/05 06:52:39;;;;;;;5.20;1.52;;;28.50;81.50;;;;;;5020803;28;20128;-47
2022/07/05 06:55:05;;;;;;;5.88;1.80;;;27.30;83.80;;;;;;5021560;28;20204;-46
2022/07/05 06:57:31;;;;;;;3.38;1.45;;;26.40;83.60;;;;;;5006550;28;20050;-45
2022/07/05 06:59:57;;;;;;;5.05;1.77;;;25.20;84.80;;;;;;5018221;28;20089;-44
2022/07/05 07:02:22;;;;;;;3.78;1.45;;;24.60;86.60;;;;;;5020687;28;20049;-45
2022/07/05 07:04:48;;;;;;;6.70;2.00;;;23.90;87.50;;;;;;5018167;28;20050;-44
2022/07/05 07:10:00;;;;;;;4.47;1.35;;;23.20;88.70;;;;;;5019763;28;20108;-45
2022/07/05 07:12:26;;;;;;;2.40;1.30;;;23.00;89.40;;;;;;5012779;28;20045;-44
2022/07/05 07:14:52;;;;;;;5.45;1.67;;;23.70;89.50;;;;;;4996169;28;20061;-45
2022/07/05 07:17:19;;;;;;;5.28;1.33;;;24.80;88.00;;;;;;5018970;28;20145;-46
2022/07/05 07:19:44;;;;;;;6.68;1.52;;;25.30;86.90;;;;;;5016219;28;20096;-45
2022/07/05 07:22:10;;;;;;;5.18;1.35;;;25.50;87.10;;;;;;4996917;28;20057;-44
2022/07/05 07:24:36;;;;;;;3.35;1.20;;;25.50;86.70;;;;;;5025341;28;20073;-44
2022/07/05 07:27:02;;;;;;;4.25;2.03;;;26.10;86.90;;;;;;5013840;28;20481;-46
2022/07/05 07:29:29;;;;;;;5.60;1.42;;;26.50;87.80;;;;;;5017225;28;20041;-45
2022/07/05 07:31:55;;;;;;;5.20;1.60;;;26.80;87.60;;;;;;5012361;28;20129;-44
2022/07/05 07:34:22;;;;;;;5.50;1.52;;;26.50;86.30;;;;;;5016149;28;20045;-45
2022/07/05 07:36:48;;;;;;;6.63;1.85;;;26.30;85.70;;;;;;5018809;28;20468;-47
2022/07/05 07:39:14;;;;;;;3.60;1.10;;;26.10;86.10;;;;;;5026981;28;20404;-46
2022/07/05 07:41:40;;;;;;;4.22;1.48;;;25.60;87.90;;;;;;5011041;28;20088;-45
2022/07/05 07:44:06;;;;;;;6.10;1.70;;;25.20;85.60;;;;;;4983562;28;20061;-45
2022/07/05 07:46:31;;;;;;;3.45;1.10;;;24.90;86.40;;;;;;5016180;28;20084;-47
2022/07/05 07:48:58;;;;;;;5.43;1.38;;;24.70;88.80;;;;;;5010032;28;20057;-45
2022/07/05 07:51:24;;;;;;;4.85;1.50;;;24.90;88.20;;;;;;5003260;28;20049;-45
2022/07/05 07:53:50;;;;;;;5.45;1.45;;;25.10;87.50;;;;;;5021074;28;20052;-44
2022/07/05 07:56:16;;;;;;;5.43;1.70;;;25.10;87.40;;;;;;5022250;28;20049;-44
2022/07/05 07:58:42;;;;;;;6.10;1.55;;;24.80;88.00;;;;;;5034346;28;20049;-45
2022/07/05 08:01:10;;;;;;;5.85;1.60;;;24.40;88.40;;;;;;4988907;28;20065;-45
2022/07/05 08:03:40;;;;;;;5.35;1.30;;;23.50;87.70;;;;;;5011269;28;20157;-46
2022/07/05 08:06:07;;;;;;;6.20;2.00;;;23.20;90.20;;;;;;5010490;28;20444;-53
2022/07/05 08:08:34;;;;;;;4.18;1.20;;;23.20;90.20;;;;;;5010487;28;20188;-46
2022/07/05 08:11:00;;;;;;;4.20;1.02;;;23.40;90.00;;;;;;5021203;28;20052;-48
2022/07/05 08:13:26;;;;;;;3.45;1.63;;;23.70;89.30;;;;;;5016204;28;20536;-46
2022/07/05 08:15:52;;;;;;;4.10;1.50;;;23.90;89.20;;;;;;5026666;28;20096;-47
2022/07/05 08:23:47;;;;;;;4.32;1.48;;;23.60;88.40;;;;;;5021741;28;20053;-46
2022/07/05 08:26:12;;;;;;;2.58;1.30;;;23.10;88.80;;;;;;5001441;28;20368;-46
2022/07/05 08:28:41;;;;;;;4.72;1.48;;;23.10;90.00;;;;;;5017170;28;20080;-44
2022/07/05 08:31:07;;;;;;;3.90;1.42;;;22.90;90.30;;;;;;5023095;28;20131;-46
2022/07/05 08:33:33;;;;;;;4.00;1.58;;;23.10;90.80;;;;;;5023946;28;20131;-45
2022/07/05 08:35:58;;;;;;;4.22;1.55;;;23.40;91.00;;;;;;5023036;28;20068;-44
2022/07/05 08:38:24;;;;;;;2.95;1.60;;;23.60;90.00;;;;;;5012703;28;20450;-45
2022/07/05 08:40:54;;;;;;;5.78;1.40;;;23.60;89.30;;;;;;5023567;28;20041;-43
2022/07/05 08:43:22;;;;;;;5.38;1.77;;;23.90;90.30;;;;;;5024079;28;20049;-44
2022/07/05 08:45:49;;;;;;;4.82;1.42;;;24.40;90.60;;;;;;5023774;28;20041;-44
2022/07/05 08:48:16;;;;;;;7.38;1.58;;;24.60;90.40;;;;;;5023754;28;20103;-48
2022/07/05 08:50:43;;;;;;;4.93;1.45;;;24.10;88.90;;;;;;5023289;28;20076;-44
2022/07/05 08:53:09;;;;;;;4.18;1.58;;;24.00;88.70;;;;;;5001300;28;20057;-44
2022/07/05 08:55:36;;;;;;;6.72;1.80;;;23.70;88.50;;;;;;5023223;28;20536;-44
2022/07/05 08:58:02;;;;;;;2.78;1.25;;;23.50;89.50;;;;;;5005523;28;20064;-45
2022/07/05 09:00:28;;;;;;;2.90;1.23;;;23.40;89.80;;;;;;5022881;28;20054;-47
2022/07/05 09:02:55;;;;;;;5.85;2.00;;;23.20;90.00;;;;;;5023225;28;20050;-44
2022/07/05 09:05:21;;;;;;;4.45;1.40;;;22.90;89.10;;;;;;5020721;28;20076;-45
2022/07/05 09:08:14;;;;;;;5.80;1.52;;;22.80;89.50;;;;;;5014140;28;20057;-44
2022/07/05 09:10:41;;;;;;;;;;;22.80;90.20;;;;;;5019070;28;20141;-46
2022/07/05 09:13:07;;;;;;;3.42;1.08;;;22.60;89.80;;;;;;5000328;28;19983;-45
2022/07/05 09:15:33;;;;;;;5.63;1.30;;;22.40;90.10;;;;;;5017616;28;20049;-45
2022/07/05 09:17:59;;;;;;;3.22;1.30;;;22.40;90.90;;;;;;5002951;28;20529;-45
2022/07/05 09:20:27;;;;;;;8.25;2.00;;;22.30;90.00;;;;;;5013968;28;20052;-45
2022/07/05 09:22:55;;;;;;;6.68;1.92;;;22.30;90.20;;;;;;5024608;28;20056;-43
2022/07/05 09:25:23;;;;;;;3.13;1.30;;;22.10;90.80;;;;;;5026219;28;20164;-44
2022/07/05 09:27:58;;;;;;;4.90;1.60;;;21.90;91.00;;;;;;5032104;28;20041;-45
2022/07/05 09:30:28;;;;;;;4.10;1.33;;;21.90;91.30;;;;;;4994830;28;20125;-50
2022/07/05 09:33:05;;;;;;;4.70;1.20;;;21.80;91.30;;;;;;5016331;28;20164;-44
2022/07/05 09:35:32;;;;;;;4.88;1.42;;;21.90;92.00;;;;;;5001526;28;20176;-45
2022/07/05 09:37:58;;;;;;;5.90;1.52;;;22.00;92.00;;;;;;5023206;28;20504;-47
2022/07/05 09:40:24;;;;;;;2.70;1.30;;;21.90;91.70;;;;;;5000539;28;20090;-47
2022/07/05 09:42:50;;;;;;;3.92;1.25;;;21.80;91.60;;;;;;5013844;28;20072;-46
2022/07/05 09:45:25;;;;;;;6.70;1.70;;;21.90;92.00;;;;;;5000156;28;20053;-46
2022/07/05 09:47:54;;;;;;;7.15;1.73;;;22.00;92.40;;;;;;5023345;28;20095;-43
2022/07/05 09:50:38;;;;;;;4.65;1.70;;;22.10;92.20;;;;;;5022072;28;20408;-44
2022/07/05 09:53:04;;;;;;;7.00;1.70;;;22.00;92.40;;;;;;5007155;28;20042;-44
2022/07/05 09:55:30;;;;;;;5.22;1.58;;;21.60;91.70;;;;;;4993272;28;20057;-45
2022/07/05 09:57:56;;;;;;;4.57;1.55;;;21.70;92.10;;;;;;5022653;28;20060;-45
2022/07/05 10:00:23;;;;;;;5.68;2.10;;;21.90;92.40;;;;;;5001132;28;20057;-43
2022/07/05 10:02:51;;;;;;;2.72;1.20;;;22.10;92.80;;;;;;4982579;28;20062;-45
2022/07/05 10:05:25;;;;;;;4.80;1.42;;;22.50;92.20;;;;;;5004625;28;20061;-50
2022/07/05 10:07:54;;;;;;;6.70;1.60;;;22.60;90.60;;;;;;5019305;28;20475;-44
2022/07/05 10:10:30;;;;;;;6.30;2.10;;;22.30;90.90;;;;;;5021984;28;20049;-46
2022/07/05 10:13:01;;;;;;;5.45;1.75;;;22.00;91.50;;;;;;5023128;28;20071;-46
2022/07/05 10:15:29;;;;;;;5.10;1.25;;;22.00;91.40;;;;;;5022754;28;20050;-44
2022/07/05 10:18:08;;;;;;;4.40;1.38;;;22.30;92.60;;;;;;5022412;28;20053;-48
2022/07/05 10:20:37;;;;;;;6.88;1.73;;;22.60;91.10;;;;;;5022251;28;20053;-45
2022/07/05 10:23:07;;;;;;;7.40;1.52;;;22.80;92.00;;;;;;5024412;28;20107;-45
2022/07/05 10:25:35;;;;;;;5.97;1.60;;;22.90;91.60;;;;;;5018165;28;20508;-45
2022/07/05 10:28:01;;;;;;;2.72;1.10;;;23.20;91.60;;;;;;5022758;28;20049;-44
2022/07/05 10:30:27;;;;;;;3.17;1.30;;;23.50;91.60;;;;;;5021661;28;20095;-45
2022/07/05 10:32:55;;;;;;;3.72;1.33;;;23.70;91.10;;;;;;5001127;28;20053;-45
2022/07/05 10:35:21;;;;;;;4.20;1.45;;;23.30;88.80;;;;;;5017859;28;20103;-46
2022/07/05 10:37:48;;;;;;;2.47;1.05;;;23.00;90.20;;;;;;5015354;28;21100;-44
2022/07/05 10:40:15;;;;;;;5.10;1.10;;;22.90;90.00;;;;;;5018463;28;20436;-49
2022/07/05 10:42:45;;;;;;;3.35;1.00;;;23.10;90.10;;;;;;5021938;28;20045;-45
2022/07/05 10:45:38;;;;;;;2.72;1.20;;;23.20;89.60;;;;;;5020402;28;20049;-46
2022/07/05 10:48:10;;;;;;;3.88;1.13;;;23.20;88.40;;;;;;5021946;28;20488;-44
2022/07/05 10:50:55;;;;;;;3.67;1.30;;;23.10;87.60;;;;;;5023542;28;20099;-46
2022/07/05 10:53:23;;;;;;;4.07;1.00;;;23.00;88.40;;;;;;5021492;28;20057;-45
2022/07/05 10:55:51;;;;;;;2.72;1.00;;;23.10;90.00;;;;;;5024543;28;20500;-47
2022/07/05 10:58:20;;;;;;;4.95;1.30;;;23.10;90.00;;;;;;5023237;28;20128;-45
2022/07/05 11:00:49;;;;;;;3.92;1.30;;;23.20;90.10;;;;;;5012968;28;20124;-46
2022/07/05 11:03:34;;;;;;;4.32;1.17;;;23.20;86.60;;;;;;5021352;28;20114;-45
2022/07/05 11:06:02;;;;;;;3.13;0.90;;;23.30;87.30;;;;;;5017389;28;20057;-48
2022/07/05 11:08:30;;;;;;;5.32;1.25;;;23.20;85.70;;;;;;5016369;28;20049;-46
2022/07/05 11:11:12;;;;;;;3.75;1.20;;;23.10;86.50;;;;;;5011367;28;20173;-47
2022/07/05 11:13:46;;;;;;;3.73;1.13;;;23.30;87.00;;;;;;5021631;28;20061;-44
2022/07/05 11:16:22;;;;;;;4.47;0.98;;;23.40;87.00;;;;;;5021050;28;20365;-46
2022/07/05 11:19:09;;;;;;;4.85;1.17;;;23.70;89.30;;;;;;5021237;28;20504;-45
2022/07/05 11:21:36;;;;;;;3.95;1.10;;;23.80;87.80;;;;;;5010946;28;20341;-44
2022/07/05 11:24:21;;;;;;;3.33;1.20;;;23.80;86.80;;;;;;5022388;28;20053;-45
2022/07/05 11:26:49;;;;;;;5.47;1.55;;;23.60;87.10;;;;;;5016568;28;20519;-45
2022/07/05 11:29:39;;;;;;;4.38;1.40;;;23.30;88.10;;;;;;5000662;28;20046;-45
2022/07/05 11:32:10;;;;;;;6.20;1.75;;;23.10;89.00;;;;;;5017437;28;20073;-44
2022/07/05 11:34:37;;;;;;;5.25;1.30;;;23.00;90.50;;;;;;4999960;28;20076;-48
2022/07/05 11:37:38;;;;;;;3.53;1.25;;;23.00;90.80;;;;;;5017883;28;20096;-44
2022/07/05 11:40:14;;;;;;;4.22;1.42;;;23.20;91.60;;;;;;4887090;29;20063;-46
2022/07/05 11:42:47;;;;;;;4.25;1.55;;;23.40;91.40;;;;;;4921761;29;20130;-45
2022/07/05 11:45:14;;;;;;;6.50;1.58;;;23.10;91.10;;;;;;4920849;29;20590;-46
2022/07/05 11:47:40;;;;;;;6.00;1.40;;;22.80;91.10;;;;;;4919906;29;20052;-44
2022/07/05 11:50:07;;;;;;;5.78;1.60;;;22.60;91.50;;;;;;4904714;29;20064;-44
2022/07/05 11:52:35;;;;;;;5.03;1.38;;;22.40;91.80;;;;;;4892621;29;20546;-45
2022/07/05 11:55:04;;;;;;;3.83;1.42;;;22.60;92.00;;;;;;4906586;29;20098;-44
2022/07/05 11:57:30;;;;;;;4.65;1.60;;;22.90;92.40;;;;;;4921113;29;20059;-46
2022/07/05 11:59:56;;;;;;;3.83;1.50;;;23.10;92.10;;;;;;4921417;29;20070;-45
2022/07/05 12:02:22;;;;;;;4.88;1.40;;;23.30;92.00;;;;;;4924208;29;20095;-45
2022/07/05 12:04:52;;;;;;;5.35;1.60;;;23.30;92.30;;;;;;4925418;29;20085;-46
2022/07/05 12:07:33;;;;;;;4.97;1.50;;;23.40;92.00;;;;;;4904830;29;20048;-47
2022/07/05 12:12:44;;;;;;;2.70;1.30;;;23.10;91.40;;;;;;4899059;29;20101;-47
2022/07/05 12:15:11;;;;;;;4.60;1.65;;;23.20;90.90;;;;;;4948980;28;20473;-45
2022/07/05 12:17:38;;;;;;;4.78;1.52;;;23.20;91.20;;;;;;5023142;28;20085;-44
2022/07/05 12:20:05;;;;;;;4.47;1.35;;;23.30;91.30;;;;;;5028707;28;20075;-45
2022/07/05 12:22:35;;;;;;;2.92;1.27;;;23.40;91.00;;;;;;5013574;28;20478;-49
2022/07/05 12:25:06;;;;;;;3.42;1.20;;;23.20;90.90;;;;;;5034716;28;20063;-45
2022/07/05 12:27:35;;;;;;;3.47;1.20;;;22.90;90.60;;;;;;5006831;28;20405;-48
2022/07/05 12:30:03;;;;;;;4.28;1.13;;;22.60;90.40;;;;;;5017365;28;20049;-45
2022/07/05 12:32:30;;;;;;;3.78;1.40;;;22.40;90.70;;;;;;5030542;28;20500;-46
2022/07/05 12:34:56;;;;;;;5.13;1.63;;;22.20;90.70;;;;;;5018390;28;20496;-45
2022/07/05 12:37:23;;;;;;;2.95;1.30;;;22.20;90.60;;;;;;5023403;28;20084;-46
2022/07/05 12:40:02;;;;;;;5.35;1.20;;;22.20;90.50;;;;;;5023806;28;20049;-44
2022/07/05 12:42:34;;;;;;;3.00;1.30;;;22.30;90.60;;;;;;5022142;28;20609;-47
2022/07/05 12:45:14;;;;;;;;;;;22.50;91.00;;;;;;5044438;28;20040;-45
2022/07/05 12:47:56;;;;;;;3.75;1.58;;;22.70;91.10;;;;;;5043902;28;20364;-45
2022/07/05 12:50:31;;;;;;;3.25;1.20;;;22.90;91.20;;;;;;5023513;28;20091;-45
2022/07/05 12:58:54;;;;;;;2.97;1.00;;;22.70;90.60;;;;;;5032768;28;20119;-46
2022/07/05 13:01:28;;;;;;;3.47;1.50;;;22.70;90.60;;;;;;5043729;28;20560;-44
2022/07/05 13:04:03;;;;;;;4.57;1.50;;;22.50;90.50;;;;;;5024874;28;20052;-43
2022/07/05 13:06:59;;;;;;;3.22;1.30;;;22.60;90.90;;;;;;5039480;28;20578;-44
2022/07/05 13:09:33;;;;;;;3.47;1.20;;;22.90;90.50;;;;;;5019933;28;20171;-46
2022/07/05 13:12:11;;;;;;;2.75;1.20;;;23.10;90.20;;;;;;5042969;28;20052;-46